createdAt,value
2019-02-11T00:02:16.199Z,5.20
2019-02-11T00:05:05.022Z,5.30
2019-02-11T00:07:52.961Z,5.30
2019-02-11T00:10:40.744Z,5.40
2019-02-11T00:13:28.413Z,5.40
2019-02-11T00:16:16.146Z,5.40
2019-02-11T00:19:04.012Z,5.40
2019-02-11T00:21:51.838Z,5.40
2019-02-11T00:24:39.861Z,5.40
2019-02-11T00:27:27.589Z,5.30
2019-02-11T00:30:15.169Z,5.30
2019-02-11T00:33:02.883Z,5.30
2019-02-11T00:35:50.684Z,5.20
2019-02-11T00:38:38.284Z,5.20
2019-02-11T00:41:26.043Z,5.20
2019-02-11T00:44:14.035Z,5.10
2019-02-11T00:47:01.824Z,5.10
2019-02-11T00:49:49.629Z,5.10
2019-02-11T00:52:37.533Z,5.00
2019-02-11T00:55:25.193Z,5.00
2019-02-11T00:58:13.229Z,4.90
2019-02-11T01:01:00.889Z,4.90
2019-02-11T01:03:48.809Z,4.90
2019-02-11T01:06:36.439Z,5.00
2019-02-11T01:09:24.342Z,5.00
2019-02-11T01:12:12.248Z,5.00
2019-02-11T01:15:00.257Z,5.00
2019-02-11T01:17:48.049Z,4.90
2019-02-11T01:20:35.963Z,4.90
2019-02-11T01:23:23.727Z,4.90
2019-02-11T01:26:11.701Z,4.90
2019-02-11T01:28:59.757Z,4.90
2019-02-11T01:31:48.009Z,4.90
2019-02-11T01:34:35.613Z,5.00
2019-02-11T01:37:23.243Z,4.90
2019-02-11T01:40:11.544Z,5.00
2019-02-11T01:42:59.445Z,5.00
2019-02-11T01:45:46.976Z,5.00
2019-02-11T01:48:54.175Z,5.00
2019-02-11T01:51:41.698Z,4.90
2019-02-11T01:54:29.547Z,5.00
2019-02-11T01:57:17.137Z,5.00
2019-02-11T02:00:10.905Z,5.00
2019-02-11T02:02:58.810Z,4.90
2019-02-11T02:05:46.752Z,4.90
2019-02-11T02:08:34.386Z,4.90
2019-02-11T02:11:22.120Z,4.90
2019-02-11T02:14:09.858Z,4.90
2019-02-11T02:16:57.559Z,5.00
2019-02-11T02:19:45.167Z,5.00
2019-02-11T02:22:33.100Z,5.00
2019-02-11T02:25:20.777Z,5.00
2019-02-11T02:28:08.463Z,5.00
2019-02-11T02:30:56.334Z,5.00
2019-02-11T02:33:44.253Z,5.00
2019-02-11T02:36:31.918Z,4.90
2019-02-11T02:39:19.959Z,4.80
2019-02-11T02:42:07.824Z,4.70
2019-02-11T02:44:55.677Z,4.50
2019-02-11T02:47:43.311Z,4.30
2019-02-11T02:50:31.371Z,4.20
2019-02-11T02:53:19.506Z,4.10
2019-02-11T02:56:07.381Z,4.10
2019-02-11T02:58:55.264Z,4.10
2019-02-11T03:01:43.134Z,4.00
2019-02-11T03:04:31.242Z,4.00
2019-02-11T03:07:19.086Z,4.10
2019-02-11T03:10:09.361Z,4.00
2019-02-11T03:12:57.021Z,4.00
2019-02-11T03:15:44.495Z,3.90
2019-02-11T03:18:32.327Z,3.90
2019-02-11T03:21:20.300Z,3.80
2019-02-11T03:24:08.182Z,3.80
2019-02-11T03:26:56.012Z,3.80
2019-02-11T03:29:43.838Z,3.70
2019-02-11T03:32:31.592Z,3.60
2019-02-11T03:35:19.142Z,3.60
2019-02-11T03:38:07.398Z,3.50
2019-02-11T03:40:55.387Z,3.50
2019-02-11T03:43:43.065Z,3.40
2019-02-11T03:46:30.846Z,3.40
2019-02-11T03:49:19.074Z,3.40
2019-02-11T03:52:06.974Z,3.40
2019-02-11T03:54:54.581Z,3.40
2019-02-11T03:57:42.593Z,3.30
2019-02-11T04:00:30.438Z,3.30
2019-02-11T04:03:18.420Z,3.30
2019-02-11T04:06:06.290Z,3.40
2019-02-11T04:08:54.308Z,3.40
2019-02-11T04:11:42.420Z,3.40
2019-02-11T04:14:30.317Z,3.40
2019-02-11T04:17:18.267Z,3.50
2019-02-11T04:20:07.942Z,3.50
2019-02-11T04:22:55.801Z,3.50
2019-02-11T04:25:43.586Z,3.50
2019-02-11T04:28:31.390Z,3.50
2019-02-11T04:31:19.318Z,3.60
2019-02-11T04:34:07.165Z,3.60
2019-02-11T04:36:55.086Z,3.60
2019-02-11T04:39:43.014Z,3.50
2019-02-11T04:42:30.667Z,3.50
2019-02-11T04:45:18.698Z,3.50
2019-02-11T04:48:06.360Z,3.50
2019-02-11T04:50:54.375Z,3.50
2019-02-11T04:53:42.306Z,3.50
2019-02-11T04:56:30.341Z,3.50
2019-02-11T04:59:18.181Z,3.50
2019-02-11T05:02:05.801Z,3.50
2019-02-11T05:04:53.811Z,3.40
2019-02-11T05:07:41.835Z,3.40
2019-02-11T05:10:29.666Z,3.40
2019-02-11T05:13:17.341Z,3.30
2019-02-11T05:16:05.446Z,3.40
2019-02-11T05:18:53.217Z,3.40
2019-02-11T05:21:40.746Z,3.40
2019-02-11T05:24:28.363Z,3.40
2019-02-11T05:27:16.195Z,3.40
2019-02-11T05:30:07.110Z,3.40
2019-02-11T05:32:55.093Z,3.40
2019-02-11T05:35:43.036Z,3.40
2019-02-11T05:38:30.983Z,3.50
2019-02-11T05:41:18.898Z,3.50
2019-02-11T05:44:06.574Z,3.50
2019-02-11T05:46:54.369Z,3.50
2019-02-11T05:49:42.079Z,3.50
2019-02-11T05:52:29.736Z,3.50
2019-02-11T05:55:17.365Z,3.50
2019-02-11T05:58:04.924Z,3.50
2019-02-11T06:00:52.853Z,3.50
2019-02-11T06:03:41.045Z,3.60
2019-02-11T06:06:28.556Z,3.70
2019-02-11T06:09:16.383Z,3.70
2019-02-11T06:12:04.378Z,3.70
2019-02-11T06:14:54.184Z,3.70
2019-02-11T06:17:42.338Z,3.70
2019-02-11T06:20:30.173Z,3.70
2019-02-11T06:23:18.122Z,3.70
2019-02-11T06:26:06.190Z,3.70
2019-02-11T06:28:54.203Z,3.80
2019-02-11T06:31:42.145Z,3.70
2019-02-11T06:34:29.791Z,3.70
2019-02-11T06:37:17.482Z,3.70
2019-02-11T06:40:09.837Z,3.70
2019-02-11T06:42:57.594Z,3.70
2019-02-11T06:45:45.208Z,3.70
2019-02-11T06:48:32.979Z,3.70
2019-02-11T06:51:21.165Z,3.60
2019-02-11T06:54:08.766Z,3.60
2019-02-11T06:56:56.517Z,3.60
2019-02-11T06:59:44.421Z,3.60
2019-02-11T07:02:32.414Z,3.60
2019-02-11T07:05:20.206Z,3.70
2019-02-11T07:08:08.142Z,3.60
2019-02-11T07:10:56.095Z,3.60
2019-02-11T07:13:44.286Z,3.50
2019-02-11T07:16:32.184Z,3.60
2019-02-11T07:19:20.057Z,3.50
2019-02-11T07:22:08.052Z,3.60
2019-02-11T07:24:56.141Z,3.60
2019-02-11T07:27:45.649Z,3.60
2019-02-11T07:30:33.645Z,3.60
2019-02-11T07:33:21.259Z,3.60
2019-02-11T07:36:09.010Z,3.60
2019-02-11T07:38:56.717Z,3.70
2019-02-11T07:42:04.664Z,3.70
2019-02-11T07:44:54.077Z,3.80
2019-02-11T07:47:41.766Z,3.80
2019-02-11T07:50:29.609Z,3.80
2019-02-11T07:53:17.704Z,3.90
2019-02-11T07:56:05.196Z,3.90
2019-02-11T07:58:53.120Z,4.00
2019-02-11T08:01:41.097Z,4.10
2019-02-11T08:04:29.169Z,4.10
2019-02-11T08:07:17.021Z,4.20
2019-02-11T08:10:07.215Z,4.20
2019-02-11T08:12:54.865Z,4.20
2019-02-11T08:15:42.717Z,4.20
2019-02-11T08:18:30.312Z,4.20
2019-02-11T08:21:17.962Z,4.20
2019-02-11T08:24:05.839Z,4.30
2019-02-11T08:26:53.611Z,4.30
2019-02-11T08:29:41.547Z,4.40
2019-02-11T08:32:29.214Z,4.30
2019-02-11T08:35:17.094Z,4.40
2019-02-11T08:38:05.050Z,4.30
2019-02-11T08:40:53.002Z,4.30
2019-02-11T08:43:40.978Z,4.40
2019-02-11T08:46:28.993Z,4.40
2019-02-11T08:49:16.734Z,4.50
2019-02-11T08:52:04.265Z,4.70
2019-02-11T08:54:52.261Z,4.70
2019-02-11T08:57:40.157Z,4.80
2019-02-11T09:00:28.018Z,5.00
2019-02-11T09:03:15.962Z,4.90
2019-02-11T09:06:03.921Z,4.90
2019-02-11T09:08:51.667Z,5.10
2019-02-11T09:11:39.757Z,5.10
2019-02-11T09:14:27.654Z,5.10
2019-02-11T09:17:15.496Z,5.10
2019-02-11T09:20:04.574Z,5.10
2019-02-11T09:22:52.341Z,5.10
2019-02-11T09:25:39.920Z,5.10
2019-02-11T09:28:27.637Z,5.10
2019-02-11T09:31:15.398Z,5.10
2019-02-11T09:34:03.198Z,5.10
2019-02-11T09:36:50.816Z,5.10
2019-02-11T09:39:38.498Z,5.20
2019-02-11T09:42:26.273Z,5.30
2019-02-11T09:45:19.773Z,5.30
2019-02-11T09:48:08.206Z,5.40
2019-02-11T09:50:56.002Z,5.40
2019-02-11T09:53:43.685Z,5.40
2019-02-11T09:56:31.696Z,5.40
2019-02-11T09:59:19.542Z,5.30
2019-02-11T10:02:08.998Z,5.30
2019-02-11T10:04:56.589Z,5.40
2019-02-11T10:07:44.521Z,5.50
2019-02-11T10:10:32.417Z,5.40
2019-02-11T10:13:20.312Z,5.30
2019-02-11T10:16:12.467Z,5.30
2019-02-11T10:18:58.032Z,5.30
2019-02-11T10:21:45.905Z,5.40
2019-02-11T10:24:34.007Z,5.30
2019-02-11T10:27:22.385Z,5.30
2019-02-11T10:30:15.378Z,5.30
2019-02-11T10:33:02.997Z,5.30
2019-02-11T10:35:50.909Z,5.40
2019-02-11T10:38:38.745Z,5.60
2019-02-11T10:41:26.649Z,5.70
2019-02-11T10:44:14.336Z,6.00
2019-02-11T10:47:02.347Z,6.10
2019-02-11T10:49:50.050Z,6.30
2019-02-11T10:52:37.757Z,6.50
2019-02-11T10:55:25.538Z,6.70
2019-02-11T11:01:00.670Z,7.00
2019-02-11T11:03:48.602Z,7.00
2019-02-11T11:06:36.616Z,7.00
2019-02-11T11:09:24.832Z,6.70
2019-02-11T11:12:13.221Z,6.50
2019-02-11T11:15:00.813Z,6.40
2019-02-11T11:17:48.845Z,6.50
2019-02-11T11:20:36.903Z,6.40
2019-02-11T11:23:24.842Z,6.50
2019-02-11T11:26:12.680Z,6.60
2019-02-11T11:29:00.566Z,6.90
2019-02-11T11:31:48.642Z,6.90
2019-02-11T11:34:36.373Z,7.20
2019-02-11T11:37:24.046Z,6.80
2019-02-11T11:40:17.718Z,6.80
2019-02-11T11:43:06.086Z,6.60
2019-02-11T11:45:53.934Z,6.60
2019-02-11T11:48:42.910Z,6.50
2019-02-11T11:51:30.767Z,6.50
2019-02-11T11:54:18.406Z,6.40
2019-02-11T11:57:07.159Z,6.40
2019-02-11T11:59:54.913Z,6.50
2019-02-11T12:02:59.480Z,6.50
2019-02-11T12:05:32.304Z,6.40
2019-02-11T12:08:20.231Z,6.40
2019-02-11T12:11:08.065Z,6.50
2019-02-11T12:13:55.874Z,6.50
2019-02-11T12:16:56.169Z,6.50
2019-02-11T12:19:33.955Z,6.50
2019-02-11T12:22:21.405Z,6.50
2019-02-11T12:25:11.608Z,6.50
2019-02-11T12:27:59.517Z,6.60
2019-02-11T12:30:47.349Z,6.70
2019-02-11T12:33:35.275Z,7.00
2019-02-11T12:36:23.181Z,7.10
2019-02-11T12:39:11.082Z,7.10
2019-02-11T12:41:59.990Z,7.10
2019-02-11T12:44:47.672Z,7.10
2019-02-11T12:47:35.452Z,7.20
2019-02-11T12:50:23.257Z,7.10
2019-02-11T12:53:11.144Z,7.20
2019-02-11T12:56:02.206Z,7.30
2019-02-11T12:58:48.266Z,7.30
2019-02-11T13:01:36.305Z,7.30
2019-02-11T13:04:23.981Z,7.20
2019-02-11T13:09:59.501Z,7.30
2019-02-11T13:12:47.533Z,7.60
2019-02-11T13:15:58.810Z,7.90
2019-02-11T13:18:25.779Z,7.90
2019-02-11T13:21:13.811Z,7.80
2019-02-11T13:24:01.831Z,7.70
2019-02-11T13:26:49.823Z,7.80
2019-02-11T13:29:37.756Z,7.80
2019-02-11T13:32:25.544Z,7.30
2019-02-11T13:35:13.554Z,7.30
2019-02-11T13:38:01.290Z,6.90
2019-02-11T13:40:49.152Z,6.80
2019-02-11T13:43:37.115Z,6.80
2019-02-11T13:46:25.214Z,6.90
2019-02-11T13:49:13.479Z,6.90
2019-02-11T13:52:01.461Z,7.00
2019-02-11T13:54:49.041Z,7.00
2019-02-11T13:57:37.715Z,7.00
2019-02-11T14:00:33.610Z,7.10
2019-02-11T14:03:21.725Z,7.10
2019-02-11T14:06:09.218Z,7.20
2019-02-11T14:08:57.099Z,7.20
2019-02-11T14:11:45.242Z,7.20
2019-02-11T14:14:33.215Z,7.10
2019-02-11T14:17:21.278Z,7.10
2019-02-11T14:20:18.370Z,7.10
2019-02-11T14:23:06.974Z,7.00
2019-02-11T14:25:54.774Z,7.00
2019-02-11T14:28:42.428Z,7.00
2019-02-11T14:31:31.189Z,6.90
2019-02-11T14:34:19.541Z,6.80
2019-02-11T14:37:07.425Z,6.80
2019-02-11T14:39:55.279Z,6.80
2019-02-11T14:42:43.035Z,6.80
2019-02-11T14:45:31.278Z,6.80
2019-02-11T14:48:27.876Z,6.80
2019-02-11T14:51:08.642Z,6.80
2019-02-11T14:53:56.226Z,6.80
2019-02-11T14:56:44.185Z,6.80
2019-02-11T14:59:31.869Z,6.90
2019-02-11T15:02:19.386Z,6.90
2019-02-11T15:05:07.379Z,6.90
2019-02-11T15:07:55.242Z,6.90
2019-02-11T15:10:43.082Z,6.70
2019-02-11T15:13:30.957Z,6.60
2019-02-11T15:16:18.617Z,6.40
2019-02-11T15:19:06.526Z,6.30
2019-02-11T15:21:54.482Z,6.20
2019-02-11T15:24:42.515Z,6.20
2019-02-11T15:27:30.437Z,6.40
2019-02-11T15:30:19.876Z,6.40
2019-02-11T15:33:07.653Z,6.50
2019-02-11T15:35:55.551Z,6.70
2019-02-11T15:38:43.550Z,6.90
2019-02-11T15:41:31.620Z,6.90
2019-02-11T15:44:19.502Z,6.90
2019-02-11T15:47:07.301Z,6.80
2019-02-11T15:49:55.025Z,6.70
2019-02-11T15:52:42.947Z,6.70
2019-02-11T15:55:30.892Z,6.60
2019-02-11T15:58:18.540Z,6.20
2019-02-11T16:01:06.390Z,6.20
2019-02-11T16:03:54.233Z,5.50
2019-02-11T16:06:42.144Z,5.20
2019-02-11T16:09:30.150Z,4.90
2019-02-11T16:12:18.138Z,4.80
2019-02-11T16:15:08.682Z,4.70
2019-02-11T16:17:56.196Z,4.70
2019-02-11T16:20:43.729Z,4.70
2019-02-11T16:23:31.382Z,4.70
2019-02-11T16:26:19.326Z,4.70
2019-02-11T16:29:07.130Z,4.70
2019-02-11T16:32:00.607Z,4.60
2019-02-11T16:34:44.094Z,4.60
2019-02-11T16:37:32.080Z,4.40
2019-02-11T16:40:28.506Z,4.40
2019-02-11T16:43:16.497Z,4.40
2019-02-11T16:46:04.267Z,4.50
2019-02-11T16:49:00.152Z,4.60
2019-02-11T16:51:41.806Z,4.70
2019-02-11T16:54:29.701Z,4.60
2019-02-11T16:57:17.942Z,4.60
2019-02-11T17:00:14.397Z,4.60
2019-02-11T17:03:02.282Z,4.60
2019-02-11T17:05:50.130Z,4.70
2019-02-11T17:08:37.906Z,4.90
2019-02-11T17:11:26.026Z,5.00
2019-02-11T17:14:14.157Z,5.10
2019-02-11T17:17:01.903Z,5.20
2019-02-11T17:19:49.845Z,5.30
2019-02-11T17:22:38.061Z,5.30
2019-02-11T17:25:25.942Z,5.40
2019-02-11T17:28:13.917Z,5.40
2019-02-11T17:31:02.318Z,5.40
2019-02-11T17:33:50.049Z,5.40
2019-02-11T17:36:38.017Z,5.40
2019-02-11T17:39:25.725Z,5.40
2019-02-11T17:42:14.906Z,5.40
2019-02-11T17:45:02.726Z,5.40
2019-02-11T17:47:50.429Z,5.40
2019-02-11T17:50:38.336Z,5.30
2019-02-11T17:53:26.766Z,5.20
2019-02-11T17:56:14.790Z,5.00
2019-02-11T17:59:02.422Z,4.90
2019-02-11T18:01:50.182Z,4.80
2019-02-11T18:04:38.149Z,4.80
2019-02-11T18:07:26.146Z,4.80
2019-02-11T18:10:13.879Z,4.80
2019-02-11T18:13:01.602Z,4.90
2019-02-11T18:15:49.506Z,4.90
2019-02-11T18:18:37.391Z,5.10
2019-02-11T18:21:25.319Z,5.20
2019-02-11T18:24:12.998Z,5.30
2019-02-11T18:27:00.921Z,5.30
2019-02-11T18:29:48.985Z,5.40
2019-02-11T18:32:36.952Z,5.30
2019-02-11T18:35:24.529Z,5.30
2019-02-11T18:38:12.526Z,5.20
2019-02-11T18:41:00.312Z,5.30
2019-02-11T18:43:48.269Z,5.30
2019-02-11T18:46:36.100Z,5.30
2019-02-11T18:49:23.724Z,5.30
2019-02-11T18:52:11.639Z,5.40
2019-02-11T18:54:59.558Z,5.30
2019-02-11T18:57:47.350Z,5.40
2019-02-11T19:00:35.029Z,5.40
2019-02-11T19:03:22.909Z,5.40
2019-02-11T19:06:11.062Z,5.40
2019-02-11T19:08:58.598Z,5.50
2019-02-11T19:11:46.449Z,5.50
2019-02-11T19:14:34.377Z,5.40
2019-02-11T19:17:22.090Z,5.50
2019-02-11T19:20:11.900Z,5.50
2019-02-11T19:22:59.633Z,5.50
2019-02-11T19:25:47.079Z,5.30
2019-02-11T19:28:35.059Z,5.30
2019-02-11T19:31:22.865Z,5.30
2019-02-11T19:34:10.788Z,5.30
2019-02-11T19:36:58.670Z,5.30
2019-02-11T19:39:46.624Z,5.30
2019-02-11T19:42:34.467Z,5.30
2019-02-11T19:45:24.099Z,5.20
2019-02-11T19:48:12.448Z,5.30
2019-02-11T19:51:00.248Z,5.30
2019-02-11T19:53:48.150Z,5.40
2019-02-11T19:56:36.000Z,5.40
2019-02-11T19:59:23.742Z,5.30
2019-02-11T20:02:11.542Z,5.30
2019-02-11T20:04:59.489Z,5.40
2019-02-11T20:07:47.481Z,5.20
2019-02-11T20:10:35.283Z,5.00
2019-02-11T20:13:23.485Z,4.80
2019-02-11T20:16:11.186Z,4.60
2019-02-11T20:18:58.774Z,4.30
2019-02-11T20:21:46.626Z,4.10
2019-02-11T20:24:34.501Z,3.90
2019-02-11T20:27:22.315Z,3.70
2019-02-11T20:30:15.465Z,3.70
2019-02-11T20:33:04.520Z,3.50
2019-02-11T20:35:52.618Z,3.50
2019-02-11T20:38:40.489Z,3.40
2019-02-11T20:41:28.353Z,3.40
2019-02-11T20:44:16.321Z,3.20
2019-02-11T20:47:04.148Z,3.20
2019-02-11T20:49:51.959Z,3.10
2019-02-11T20:52:39.950Z,2.90
2019-02-11T20:55:27.510Z,3.00
2019-02-11T20:58:15.530Z,3.20
2019-02-11T21:01:03.246Z,3.20
2019-02-11T21:03:50.926Z,3.20
2019-02-11T21:06:38.803Z,3.30
2019-02-11T21:09:26.766Z,3.40
2019-02-11T21:12:14.853Z,3.30
2019-02-11T21:15:02.482Z,3.30
2019-02-11T21:17:50.417Z,3.20
2019-02-11T21:20:42.963Z,3.10
2019-02-11T21:23:30.915Z,2.90
2019-02-11T21:26:18.612Z,2.70
2019-02-11T21:29:06.533Z,2.50
2019-02-11T21:31:54.114Z,2.40
2019-02-11T21:34:41.666Z,2.20
2019-02-11T21:37:29.790Z,0.60
2019-02-11T21:40:17.626Z,2.20
2019-02-11T21:43:05.569Z,2.20
2019-02-11T21:45:53.538Z,2.20
2019-02-11T21:48:41.699Z,2.20
2019-02-11T21:51:29.471Z,2.00
2019-02-11T21:54:17.142Z,1.90
2019-02-11T21:57:05.094Z,1.80
2019-02-11T21:59:52.873Z,1.80
2019-02-11T22:02:40.479Z,1.60
2019-02-11T22:05:28.232Z,1.40
2019-02-11T22:08:15.961Z,1.40
2019-02-11T22:11:03.813Z,1.50
2019-02-11T22:13:51.933Z,1.30
2019-02-11T22:16:39.573Z,1.20
2019-02-11T22:19:27.212Z,1.10
2019-02-11T22:22:15.093Z,0.90
2019-02-11T22:25:03.130Z,0.70
2019-02-11T22:27:50.981Z,0.60
2019-02-11T22:30:38.973Z,0.60
2019-02-11T22:33:26.899Z,0.70
2019-02-11T22:36:14.678Z,0.70
2019-02-11T22:39:02.538Z,0.60
2019-02-11T22:41:50.292Z,0.40
2019-02-11T22:44:37.933Z,0.30
2019-02-11T22:47:25.566Z,0.40
2019-02-11T22:50:13.882Z,0.40
2019-02-11T22:53:01.685Z,0.40
2019-02-11T22:55:49.333Z,0.50
2019-02-11T22:58:37.123Z,0.60
2019-02-11T23:01:25.166Z,0.60
2019-02-11T23:04:13.051Z,0.60
2019-02-11T23:07:00.946Z,0.40
2019-02-11T23:09:48.834Z,0.30
2019-02-11T23:12:36.426Z,0.20
2019-02-11T23:15:24.512Z,0.20
2019-02-11T23:18:12.169Z,0.30
2019-02-11T23:21:00.128Z,0.40
2019-02-11T23:23:47.916Z,0.50
2019-02-11T23:26:35.993Z,0.60
2019-02-11T23:29:23.700Z,0.70
2019-02-11T23:32:11.350Z,0.70
2019-02-11T23:34:58.973Z,0.70
2019-02-11T23:37:47.158Z,0.70
2019-02-11T23:40:34.685Z,0.90
2019-02-11T23:43:22.664Z,1.10
2019-02-11T23:46:10.161Z,1.40
2019-02-11T23:48:58.129Z,1.70
2019-02-11T23:51:45.737Z,1.90
2019-02-11T23:54:33.690Z,2.00
